sensor_id;sensor_type;location;lat;lon;timestamp;P1;durP1;ratioP1;P2;durP2;ratioP2
62110;SDS011;48102;47.526;19.072;2023-03-01T04:32:56;1.77;;;1.67;;
62110;SDS011;48102;47.526;19.072;2023-03-01T04:35:59;4.32;;;3.37;;
62110;SDS011;48102;47.526;19.072;2023-03-01T04:39:02;3.87;;;2.58;;
62110;SDS011;48102;47.526;19.072;2023-03-01T04:42:14;4.40;;;3.67;;
62110;SDS011;48102;47.526;19.072;2023-03-01T04:45:19;5.18;;;4.30;;
62110;SDS011;48102;47.526;19.072;2023-03-01T04:48:22;6.95;;;4.03;;
62110;SDS011;48102;47.526;19.072;2023-03-01T04:51:43;5.32;;;3.37;;
62110;SDS011;48102;47.526;19.072;2023-03-01T04:54:46;7.47;;;4.28;;
62110;SDS011;48102;47.526;19.072;2023-03-01T04:57:48;5.32;;;3.90;;
62110;SDS011;48102;47.526;19.072;2023-03-01T05:00:52;4.78;;;4.15;;
62110;SDS011;48102;47.526;19.072;2023-03-01T05:03:55;6.20;;;5.20;;
62110;SDS011;48102;47.526;19.072;2023-03-01T05:06:58;7.05;;;4.32;;
62110;SDS011;48102;47.526;19.072;2023-03-01T05:10:01;5.22;;;4.65;;
62110;SDS011;48102;47.526;19.072;2023-03-01T05:13:07;5.40;;;3.87;;
62110;SDS011;48102;47.526;19.072;2023-03-01T05:16:10;7.45;;;5.05;;
62110;SDS011;48102;47.526;19.072;2023-03-01T05:19:16;9.45;;;4.68;;
62110;SDS011;48102;47.526;19.072;2023-03-01T05:22:25;6.78;;;4.03;;
62110;SDS011;48102;47.526;19.072;2023-03-01T05:28:35;7.45;;;4.95;;
62110;SDS011;48102;47.526;19.072;2023-03-01T05:31:38;7.72;;;4.87;;
62110;SDS011;48102;47.526;19.072;2023-03-01T05:34:41;6.10;;;4.87;;
62110;SDS011;48102;47.526;19.072;2023-03-01T05:37:45;5.97;;;4.43;;
62110;SDS011;48102;47.526;19.072;2023-03-01T05:40:50;5.72;;;4.25;;
62110;SDS011;48102;47.526;19.072;2023-03-01T05:43:53;6.25;;;4.07;;
62110;SDS011;48102;47.526;19.072;2023-03-01T05:46:56;5.37;;;3.97;;
62110;SDS011;48102;47.526;19.072;2023-03-01T05:49:59;7.03;;;4.90;;
62110;SDS011;48102;47.526;19.072;2023-03-01T05:53:03;6.10;;;4.30;;
62110;SDS011;48102;47.526;19.072;2023-03-01T05:56:15;5.22;;;4.68;;
62110;SDS011;48102;47.526;19.072;2023-03-01T05:59:17;10.15;;;5.05;;
62110;SDS011;48102;47.526;19.072;2023-03-01T06:05:24;5.97;;;4.57;;
62110;SDS011;48102;47.526;19.072;2023-03-01T06:08:27;5.55;;;4.03;;
62110;SDS011;48102;47.526;19.072;2023-03-01T06:11:30;7.97;;;4.55;;
62110;SDS011;48102;47.526;19.072;2023-03-01T06:14:33;5.37;;;4.55;;
62110;SDS011;48102;47.526;19.072;2023-03-01T06:17:36;5.85;;;4.57;;
62110;SDS011;48102;47.526;19.072;2023-03-01T06:20:43;6.85;;;4.78;;
62110;SDS011;48102;47.526;19.072;2023-03-01T06:23:46;8.02;;;5.03;;
62110;SDS011;48102;47.526;19.072;2023-03-01T06:26:48;6.20;;;4.12;;
62110;SDS011;48102;47.526;19.072;2023-03-01T06:29:51;6.00;;;4.87;;
62110;SDS011;48102;47.526;19.072;2023-03-01T06:32:55;15.48;;;5.32;;
62110;SDS011;48102;47.526;19.072;2023-03-01T06:36:03;6.15;;;4.68;;
62110;SDS011;48102;47.526;19.072;2023-03-01T06:39:06;5.00;;;4.18;;
62110;SDS011;48102;47.526;19.072;2023-03-01T06:42:10;8.30;;;4.87;;
62110;SDS011;48102;47.526;19.072;2023-03-01T06:45:13;8.13;;;5.20;;
62110;SDS011;48102;47.526;19.072;2023-03-01T06:48:16;5.28;;;4.50;;
62110;SDS011;48102;47.526;19.072;2023-03-01T06:51:18;7.10;;;4.87;;
62110;SDS011;48102;47.526;19.072;2023-03-01T06:54:21;10.15;;;4.78;;
62110;SDS011;48102;47.526;19.072;2023-03-01T07:00:30;6.00;;;4.15;;
62110;SDS011;48102;47.526;19.072;2023-03-01T07:03:33;9.32;;;5.62;;
62110;SDS011;48102;47.526;19.072;2023-03-01T07:06:37;6.80;;;4.50;;
62110;SDS011;48102;47.526;19.072;2023-03-01T07:09:39;8.35;;;5.30;;
62110;SDS011;48102;47.526;19.072;2023-03-01T07:12:42;5.82;;;4.72;;
62110;SDS011;48102;47.526;19.072;2023-03-01T07:15:45;7.80;;;5.22;;
62110;SDS011;48102;47.526;19.072;2023-03-01T07:18:48;5.93;;;4.40;;
62110;SDS011;48102;47.526;19.072;2023-03-01T07:21:51;9.35;;;4.85;;
62110;SDS011;48102;47.526;19.072;2023-03-01T07:27:56;8.05;;;4.35;;
62110;SDS011;48102;47.526;19.072;2023-03-01T07:34:03;6.00;;;4.40;;
62110;SDS011;48102;47.526;19.072;2023-03-01T07:37:06;7.78;;;5.15;;
62110;SDS011;48102;47.526;19.072;2023-03-01T07:40:10;6.87;;;4.50;;
62110;SDS011;48102;47.526;19.072;2023-03-01T07:43:16;7.18;;;4.80;;
62110;SDS011;48102;47.526;19.072;2023-03-01T07:46:19;7.35;;;5.43;;
62110;SDS011;48102;47.526;19.072;2023-03-01T07:49:22;8.05;;;5.37;;
62110;SDS011;48102;47.526;19.072;2023-03-01T07:52:25;8.23;;;5.60;;
62110;SDS011;48102;47.526;19.072;2023-03-01T07:55:29;8.18;;;5.50;;
62110;SDS011;48102;47.526;19.072;2023-03-01T07:58:35;8.98;;;5.03;;
62110;SDS011;48102;47.526;19.072;2023-03-01T08:01:40;7.97;;;5.03;;
62110;SDS011;48102;47.526;19.072;2023-03-01T08:04:43;8.65;;;5.07;;
62110;SDS011;48102;47.526;19.072;2023-03-01T08:07:46;7.60;;;5.30;;
62110;SDS011;48102;47.526;19.072;2023-03-01T08:10:50;7.87;;;5.07;;
62110;SDS011;48102;47.526;19.072;2023-03-01T08:13:53;7.40;;;5.60;;
62110;SDS011;48102;47.526;19.072;2023-03-01T08:16:57;8.75;;;5.20;;
62110;SDS011;48102;47.526;19.072;2023-03-01T08:23:03;7.18;;;5.57;;
62110;SDS011;48102;47.526;19.072;2023-03-01T08:26:10;9.80;;;6.00;;
62110;SDS011;48102;47.526;19.072;2023-03-01T08:29:15;9.02;;;5.45;;
62110;SDS011;48102;47.526;19.072;2023-03-01T08:32:18;6.30;;;4.53;;
62110;SDS011;48102;47.526;19.072;2023-03-01T08:38:24;5.20;;;4.18;;
62110;SDS011;48102;47.526;19.072;2023-03-01T08:41:27;8.25;;;4.60;;
62110;SDS011;48102;47.526;19.072;2023-03-01T08:44:30;7.47;;;5.10;;
62110;SDS011;48102;47.526;19.072;2023-03-01T08:47:33;9.15;;;5.00;;
62110;SDS011;48102;47.526;19.072;2023-03-01T08:50:37;8.05;;;4.90;;
62110;SDS011;48102;47.526;19.072;2023-03-01T08:53:42;6.90;;;4.82;;
62110;SDS011;48102;47.526;19.072;2023-03-01T08:56:45;6.10;;;4.32;;
62110;SDS011;48102;47.526;19.072;2023-03-01T08:59:49;5.68;;;3.90;;
62110;SDS011;48102;47.526;19.072;2023-03-01T09:02:51;7.28;;;4.30;;
62110;SDS011;48102;47.526;19.072;2023-03-01T09:05:59;15.50;;;5.35;;
62110;SDS011;48102;47.526;19.072;2023-03-01T09:09:04;5.72;;;4.12;;
62110;SDS011;48102;47.526;19.072;2023-03-01T09:12:07;5.90;;;4.68;;
62110;SDS011;48102;47.526;19.072;2023-03-01T09:15:10;5.20;;;4.45;;
62110;SDS011;48102;47.526;19.072;2023-03-01T09:18:13;6.85;;;4.32;;
62110;SDS011;48102;47.526;19.072;2023-03-01T09:21:16;10.02;;;4.62;;
62110;SDS011;48102;47.526;19.072;2023-03-01T09:24:32;8.77;;;4.75;;
62110;SDS011;48102;47.526;19.072;2023-03-01T09:27:35;6.47;;;4.75;;
62110;SDS011;48102;47.526;19.072;2023-03-01T09:30:41;6.95;;;4.55;;
62110;SDS011;48102;47.526;19.072;2023-03-01T09:33:48;5.18;;;4.20;;
62110;SDS011;48102;47.526;19.072;2023-03-01T09:36:52;8.00;;;5.15;;
62110;SDS011;48102;47.526;19.072;2023-03-01T09:39:54;11.12;;;4.70;;
62110;SDS011;48102;47.526;19.072;2023-03-01T09:46:09;6.82;;;4.75;;
62110;SDS011;48102;47.526;19.072;2023-03-01T09:49:33;7.37;;;4.85;;
62110;SDS011;48102;47.526;19.072;2023-03-01T09:56:19;6.90;;;5.10;;
62110;SDS011;48102;47.526;19.072;2023-03-01T09:59:28;6.47;;;4.60;;
62110;SDS011;48102;47.526;19.072;2023-03-01T10:02:57;11.43;;;5.70;;
62110;SDS011;48102;47.526;19.072;2023-03-01T10:06:04;8.55;;;5.53;;
62110;SDS011;48102;47.526;19.072;2023-03-01T10:09:36;7.45;;;5.53;;
62110;SDS011;48102;47.526;19.072;2023-03-01T10:12:40;8.23;;;5.05;;
62110;SDS011;48102;47.526;19.072;2023-03-01T10:15:50;7.50;;;5.50;;
62110;SDS011;48102;47.526;19.072;2023-03-01T10:18:59;9.80;;;5.80;;
62110;SDS011;48102;47.526;19.072;2023-03-01T10:22:11;8.05;;;5.18;;
62110;SDS011;48102;47.526;19.072;2023-03-01T10:25:22;10.70;;;5.65;;
62110;SDS011;48102;47.526;19.072;2023-03-01T10:28:58;8.20;;;5.55;;
62110;SDS011;48102;47.526;19.072;2023-03-01T10:32:04;13.55;;;5.85;;
62110;SDS011;48102;47.526;19.072;2023-03-01T10:35:20;10.15;;;5.82;;
62110;SDS011;48102;47.526;19.072;2023-03-01T10:38:25;13.70;;;5.87;;
62110;SDS011;48102;47.526;19.072;2023-03-01T10:41:28;7.03;;;4.87;;
62110;SDS011;48102;47.526;19.072;2023-03-01T10:44:39;7.37;;;5.20;;
62110;SDS011;48102;47.526;19.072;2023-03-01T10:47:45;7.90;;;6.25;;
62110;SDS011;48102;47.526;19.072;2023-03-01T10:50:49;5.47;;;4.55;;
62110;SDS011;48102;47.526;19.072;2023-03-01T10:54:15;6.15;;;4.72;;
62110;SDS011;48102;47.526;19.072;2023-03-01T10:57:26;10.13;;;5.62;;
62110;SDS011;48102;47.526;19.072;2023-03-01T11:00:32;8.70;;;5.85;;
62110;SDS011;48102;47.526;19.072;2023-03-01T11:03:37;7.75;;;4.85;;
62110;SDS011;48102;47.526;19.072;2023-03-01T11:06:41;7.25;;;5.28;;
62110;SDS011;48102;47.526;19.072;2023-03-01T11:09:44;7.90;;;5.68;;
62110;SDS011;48102;47.526;19.072;2023-03-01T11:12:46;9.50;;;5.53;;
62110;SDS011;48102;47.526;19.072;2023-03-01T11:16:00;7.35;;;5.47;;
62110;SDS011;48102;47.526;19.072;2023-03-01T11:22:12;8.15;;;5.37;;
62110;SDS011;48102;47.526;19.072;2023-03-01T11:25:24;6.07;;;5.05;;
62110;SDS011;48102;47.526;19.072;2023-03-01T11:28:40;7.53;;;4.93;;
62110;SDS011;48102;47.526;19.072;2023-03-01T11:31:57;10.80;;;5.37;;
62110;SDS011;48102;47.526;19.072;2023-03-01T11:35:12;6.75;;;4.60;;
62110;SDS011;48102;47.526;19.072;2023-03-01T11:38:26;6.90;;;5.25;;
62110;SDS011;48102;47.526;19.072;2023-03-01T11:41:32;8.70;;;6.32;;
62110;SDS011;48102;47.526;19.072;2023-03-01T11:44:38;7.62;;;4.72;;
62110;SDS011;48102;47.526;19.072;2023-03-01T11:51:24;13.15;;;5.07;;
62110;SDS011;48102;47.526;19.072;2023-03-01T12:01:32;8.05;;;5.25;;
62110;SDS011;48102;47.526;19.072;2023-03-01T12:14:51;6.43;;;4.60;;
62110;SDS011;48102;47.526;19.072;2023-03-01T12:39:03;4.85;;;4.00;;
62110;SDS011;48102;47.526;19.072;2023-03-01T12:41:42;5.93;;;4.43;;
62110;SDS011;48102;47.526;19.072;2023-03-01T12:44:54;5.60;;;3.80;;
62110;SDS011;48102;47.526;19.072;2023-03-01T12:48:22;6.10;;;3.78;;
62110;SDS011;48102;47.526;19.072;2023-03-01T12:51:34;5.93;;;3.60;;
62110;SDS011;48102;47.526;19.072;2023-03-01T12:54:40;4.75;;;3.37;;
62110;SDS011;48102;47.526;19.072;2023-03-01T12:57:46;10.38;;;3.92;;
62110;SDS011;48102;47.526;19.072;2023-03-01T13:01:16;5.25;;;3.58;;
62110;SDS011;48102;47.526;19.072;2023-03-01T13:11:17;5.47;;;3.92;;
62110;SDS011;48102;47.526;19.072;2023-03-01T13:17:29;3.58;;;3.15;;
62110;SDS011;48102;47.526;19.072;2023-03-01T13:20:45;4.82;;;3.35;;
62110;SDS011;48102;47.526;19.072;2023-03-01T13:23:49;7.28;;;3.45;;
62110;SDS011;48102;47.526;19.072;2023-03-01T13:33:39;3.87;;;2.95;;
62110;SDS011;48102;47.526;19.072;2023-03-01T13:36:50;6.28;;;3.28;;
62110;SDS011;48102;47.526;19.072;2023-03-01T13:42:56;4.95;;;2.97;;
62110;SDS011;48102;47.526;19.072;2023-03-01T13:46:12;6.37;;;3.05;;
62110;SDS011;48102;47.526;19.072;2023-03-01T13:49:26;3.83;;;2.60;;
62110;SDS011;48102;47.526;19.072;2023-03-01T13:52:50;5.20;;;2.60;;
62110;SDS011;48102;47.526;19.072;2023-03-01T13:56:07;3.70;;;2.25;;
62110;SDS011;48102;47.526;19.072;2023-03-01T13:59:20;3.65;;;2.50;;
62110;SDS011;48102;47.526;19.072;2023-03-01T14:02:25;5.05;;;2.10;;
62110;SDS011;48102;47.526;19.072;2023-03-01T14:05:28;4.32;;;2.60;;
62110;SDS011;48102;47.526;19.072;2023-03-01T14:08:33;2.08;;;1.75;;
62110;SDS011;48102;47.526;19.072;2023-03-01T14:14:55;3.20;;;2.00;;
62110;SDS011;48102;47.526;19.072;2023-03-01T14:18:04;2.87;;;2.35;;
62110;SDS011;48102;47.526;19.072;2023-03-01T14:21:17;2.65;;;2.28;;
62110;SDS011;48102;47.526;19.072;2023-03-01T14:24:21;2.65;;;2.03;;
62110;SDS011;48102;47.526;19.072;2023-03-01T14:27:30;4.12;;;1.98;;
62110;SDS011;48102;47.526;19.072;2023-03-01T14:30:42;2.97;;;1.92;;
62110;SDS011;48102;47.526;19.072;2023-03-01T14:33:46;3.28;;;2.15;;
62110;SDS011;48102;47.526;19.072;2023-03-01T14:37:09;5.25;;;2.10;;
62110;SDS011;48102;47.526;19.072;2023-03-01T14:40:34;3.55;;;2.00;;
62110;SDS011;48102;47.526;19.072;2023-03-01T14:43:39;4.37;;;2.45;;
62110;SDS011;48102;47.526;19.072;2023-03-01T14:46:46;2.95;;;1.77;;
62110;SDS011;48102;47.526;19.072;2023-03-01T14:49:50;5.45;;;1.75;;
62110;SDS011;48102;47.526;19.072;2023-03-01T14:53:00;3.42;;;2.15;;
62110;SDS011;48102;47.526;19.072;2023-03-01T14:56:12;4.28;;;1.83;;
62110;SDS011;48102;47.526;19.072;2023-03-01T14:59:18;2.37;;;2.10;;
62110;SDS011;48102;47.526;19.072;2023-03-01T15:02:26;2.47;;;1.83;;
62110;SDS011;48102;47.526;19.072;2023-03-01T15:05:32;2.42;;;1.85;;
62110;SDS011;48102;47.526;19.072;2023-03-01T15:08:35;4.20;;;2.10;;
62110;SDS011;48102;47.526;19.072;2023-03-01T15:11:43;7.30;;;2.10;;
62110;SDS011;48102;47.526;19.072;2023-03-01T15:14:47;3.12;;;1.65;;
62110;SDS011;48102;47.526;19.072;2023-03-01T15:18:06;5.65;;;2.08;;
62110;SDS011;48102;47.526;19.072;2023-03-01T15:21:19;3.80;;;1.73;;
62110;SDS011;48102;47.526;19.072;2023-03-01T15:24:25;3.62;;;1.80;;
62110;SDS011;48102;47.526;19.072;2023-03-01T15:27:29;3.30;;;1.92;;
62110;SDS011;48102;47.526;19.072;2023-03-01T15:30:33;3.53;;;2.10;;
62110;SDS011;48102;47.526;19.072;2023-03-01T15:33:42;3.00;;;2.00;;
62110;SDS011;48102;47.526;19.072;2023-03-01T15:36:50;4.95;;;2.20;;
62110;SDS011;48102;47.526;19.072;2023-03-01T15:39:56;3.80;;;1.92;;
62110;SDS011;48102;47.526;19.072;2023-03-01T15:43:01;3.62;;;2.05;;
62110;SDS011;48102;47.526;19.072;2023-03-01T15:46:12;4.57;;;2.10;;
62110;SDS011;48102;47.526;19.072;2023-03-01T15:52:57;2.62;;;1.83;;
62110;SDS011;48102;47.526;19.072;2023-03-01T15:56:01;3.28;;;2.05;;
62110;SDS011;48102;47.526;19.072;2023-03-01T16:02:09;3.08;;;1.80;;
62110;SDS011;48102;47.526;19.072;2023-03-01T16:05:16;5.97;;;1.90;;
62110;SDS011;48102;47.526;19.072;2023-03-01T16:08:28;2.95;;;2.10;;
62110;SDS011;48102;47.526;19.072;2023-03-01T16:11:31;12.90;;;2.42;;
62110;SDS011;48102;47.526;19.072;2023-03-01T16:14:36;4.90;;;2.28;;
62110;SDS011;48102;47.526;19.072;2023-03-01T16:17:39;6.12;;;2.05;;
62110;SDS011;48102;47.526;19.072;2023-03-01T16:20:42;2.47;;;2.00;;
62110;SDS011;48102;47.526;19.072;2023-03-01T16:23:45;6.37;;;2.30;;
62110;SDS011;48102;47.526;19.072;2023-03-01T16:29:51;4.30;;;2.27;;
62110;SDS011;48102;47.526;19.072;2023-03-01T16:32:54;7.43;;;2.65;;
62110;SDS011;48102;47.526;19.072;2023-03-01T16:35:57;3.65;;;2.35;;
62110;SDS011;48102;47.526;19.072;2023-03-01T16:39:02;4.35;;;2.60;;
62110;SDS011;48102;47.526;19.072;2023-03-01T16:42:05;6.72;;;3.20;;
62110;SDS011;48102;47.526;19.072;2023-03-01T16:45:08;3.87;;;2.65;;
62110;SDS011;48102;47.526;19.072;2023-03-01T16:48:25;12.55;;;3.40;;
62110;SDS011;48102;47.526;19.072;2023-03-01T16:51:28;4.28;;;2.55;;
62110;SDS011;48102;47.526;19.072;2023-03-01T16:54:33;5.50;;;3.12;;
62110;SDS011;48102;47.526;19.072;2023-03-01T16:57:36;6.47;;;2.62;;
62110;SDS011;48102;47.526;19.072;2023-03-01T17:00:42;3.87;;;2.58;;
62110;SDS011;48102;47.526;19.072;2023-03-01T17:03:46;4.18;;;2.35;;
62110;SDS011;48102;47.526;19.072;2023-03-01T17:06:51;12.77;;;2.83;;
62110;SDS011;48102;47.526;19.072;2023-03-01T17:09:53;4.82;;;2.65;;
62110;SDS011;48102;47.526;19.072;2023-03-01T17:12:56;4.60;;;2.78;;
62110;SDS011;48102;47.526;19.072;2023-03-01T17:15:59;4.82;;;2.58;;
62110;SDS011;48102;47.526;19.072;2023-03-01T17:19:02;7.93;;;3.67;;
62110;SDS011;48102;47.526;19.072;2023-03-01T17:22:05;6.32;;;3.53;;
62110;SDS011;48102;47.526;19.072;2023-03-01T17:25:08;4.70;;;3.22;;
62110;SDS011;48102;47.526;19.072;2023-03-01T17:28:12;8.05;;;3.28;;
62110;SDS011;48102;47.526;19.072;2023-03-01T17:31:23;5.60;;;3.22;;
62110;SDS011;48102;47.526;19.072;2023-03-01T17:37:29;8.73;;;3.12;;
62110;SDS011;48102;47.526;19.072;2023-03-01T17:40:32;6.75;;;3.70;;
62110;SDS011;48102;47.526;19.072;2023-03-01T17:43:37;8.05;;;3.25;;
62110;SDS011;48102;47.526;19.072;2023-03-01T17:46:42;3.53;;;2.40;;
62110;SDS011;48102;47.526;19.072;2023-03-01T17:49:45;5.60;;;2.95;;
